PILOTS ONLINE: 571    ATC ONLINE: 152

KSNA

John Wayne Airport-Orange County Airport

Location

IATA SNA
City Santa Ana
Country  United States
Latitude 33° 40' 32" N
Longitude 117° 52' 4" W
Elevation 56 ft
Type Large Airport

Map

Weather

METAR
2014/10/21 18:53
KSNA 211853Z 27004KT 10SM FEW018 23/15 A2990 RMK AO2 SLP124 T02330150
TAF
2014/10/21 18:36
TAF KSNA 211731Z 2118/2218 VRB03KT P6SM SCT018 
     FM211900 23008KT P6SM SKC 
     FM220300 VRB04KT P6SM FEW012 
      TEMPO 2209/2212 6SM BR BKN012

Runways

01L/19R 5700 ft / 150 ft
01R/19L 2887 ft / 75 ft

Outbound flights

Callsign Flying to Pilot ATD/STD ETA Aircraft

Inbound flights

Callsign Flying from Pilot ATD ETA Aircraft